Weather at Niagara Falls Heliport

Public forecast

Using degrees Celsius for public forecast. Weather courtesy of forecast.io.

Closest aviation weather report (METAR) to Niagara Falls Heliport

Closest report is Niagara Falls International Airport, 5.7 nm (10.6 km) E.

2024/07/13 21:53 (retrieved 23 minutes ago)

KIAG 132153Z 32006KT 10SM CLR 29/12 A3013 RMK AO2 SLP198 T02940122

Closest aviation forecast (TAF) to Niagara Falls Heliport

Closest forecast is Niagara Falls International Airport, 5.7 nm (10.6 km) E.

2024/07/13 18:22 (retrieved 4 hours ago)

TAF KIAG 131720Z 1318/1418 VRB03KT P6SM FEW035 FM140000 VRB03KT P6SM SKC FM141500 22008KT P6SM SCT250